FW0749 Weather Reports


time (UTC)temp
C
wind
direction
speed
KPH
gust
KPH
rain 1hr
cm
rain 24hr
cm
rain mn
cm
humidity
%
barometer
mb
20200229071316 15 0.0 1.6 0.00 0.00 0.00 76 1017.9
20200229070316 15 0.0 0.0 0.00 0.00 0.00 77 1018.1
20200229065316 15 180 4.8 8.0 0.00 0.00 0.00 75 1018.1
20200229064316 15 67 1.6 3.2 0.00 0.00 0.00 75 1018.3
20200229063315 15 67 3.2 4.8 0.00 0.00 0.00 75 1018.2
20200229062315 16 67 1.6 1.6 0.00 0.00 0.00 72 1018.3
20200229061316 16 0.0 1.6 0.00 0.00 0.00 72 1018.4
20200229060315 16 0.0 0.0 0.00 0.00 0.00 72 1018.5
20200229055316 18 135 3.2 4.8 0.00 0.00 0.00 66 1018.4
20200229054316 17 315 1.6 3.2 0.00 0.00 0.00 66 1018.4
20200229053316 17 315 4.8 8.0 0.00 0.00 0.00 71 1018.2
20200229052316 17 0.0 0.0 0.00 0.00 0.00 72 1018.0
20200229051316 17 90 1.6 3.2 0.00 0.00 0.00 72 1018.0
20200229050316 18 0.0 1.6 0.00 0.00 0.00 68 1017.8
20200229045317 18 0 1.6 3.2 0.00 0.00 0.00 65 1017.7
20200229044316 20 157 1.6 3.2 0.00 0.00 0.00 63 1017.8
20200229043316 20 337 6.4 8.0 0.00 0.00 0.00 59 1017.7
20200229042316 20 337 6.4 9.7 0.00 0.00 0.00 59 1017.6
20200229041316 20 337 8.0 9.7 0.00 0.00 0.00 58 1017.5
20200229040317 20 315 6.4 8.0 0.00 0.00 0.00 59 1017.4
20200229035316 20 292 8.0 14.5 0.00 0.00 0.00 58 1017.3
20200229034316 21 247 3.2 6.4 0.00 0.00 0.00 56 1017.2
20200229033316 21 247 1.6 4.8 0.00 0.00 0.00 57 1017.1
20200229032316 21 225 3.2 6.4 0.00 0.00 0.00 57 1017.0
20200229031316 21 45 4.8 6.4 0.00 0.00 0.00 59 1016.8
20200229030316 21 45 6.4 8.0 0.00 0.00 0.00 60 1016.5
20200229025316 21 0.0 1.6 0.00 0.00 0.00 61 1016.4
20200229024316 21 315 3.2 4.8 0.00 0.00 0.00 61 1016.1
20200229023318 21 45 4.8 8.0 0.00 0.00 0.00 61 1016.0
20200229022316 21 270 1.6 4.8 0.00 0.00 0.00 60 1015.6
20200229021316 22 45 3.2 4.8 0.00 0.00 0.00 59 1015.4
20200229020317 22 22 4.8 6.4 0.00 0.00 0.00 59 1015.3
20200229015316 22 45 4.8 8.0 0.00 0.00 0.00 59 1015.3
20200229014316 22 22 4.8 8.0 0.00 0.00 0.00 58 1015.0
20200229013316 23 247 3.2 4.8 0.00 0.00 0.00 55 1015.0
20200229012316 23 202 4.8 6.4 0.00 0.00 0.00 53 1014.9
20200229011316 24 67 1.6 1.6 0.00 0.00 0.00 52 1015.0
20200229010316 24 247 4.8 8.0 0.00 0.00 0.00 50 1015.0
20200229005316 25 225 4.8 8.0 0.00 0.00 0.00 47 1014.8
20200229004316 25 292 3.2 4.8 0.00 0.00 0.00 46 1014.9
20200229003317 25 247 6.4 9.7 0.00 0.00 0.00 46 1014.7
20200229002316 26 247 4.8 11.3 0.00 0.00 0.00 46 1014.7
20200229001316 26 247 12.9 19.3 0.00 0.00 0.00 43 1014.7
20200229000316 27 247 11.3 14.5 0.00 0.00 0.00 40 1014.2
20200228235316 27 247 11.3 22.5 0.00 0.00 0.00 45 1014.3
20200228234315 27 270 12.9 17.7 0.00 0.00 0.00 42 1014.2
20200228233316 27 247 17.7 25.7 0.00 0.00 0.00 42 1014.1
20200228232316 28 247 1.6 4.8 0.00 0.00 0.00 38 1014.1
20200228231316 28 157 6.4 9.7 0.00 0.00 0.00 37 1014.0
20200228230316 28 247 14.5 20.9 0.00 0.00 0.00 34 1013.9
20200228225316 28 247 9.7 12.9 0.00 0.00 0.00 32 1013.7
20200228224315 28 247 14.5 20.9 0.00 0.00 0.00 35 1013.9
20200228223316 28 247 14.5 20.9 0.00 0.00 0.00 35 1013.9
20200228222316 28 247 22.5 30.6 0.00 0.00 0.00 33 1013.9
20200228221316 28 247 19.3 22.5 0.00 0.00 0.00 31 1013.8
20200228220316 28 247 16.1 22.5 0.00 0.00 0.00 31 1014.0
20200228215316 29 157 9.7 14.5 0.00 0.00 0.00 30 1014.1
20200228214315 30 180 8.0 11.3 0.00 0.00 0.00 30 1014.2
20200228213316 29 0 4.8 6.4 0.00 0.00 0.00 29 1014.2
20200228212315 28 67 1.6 6.4 0.00 0.00 0.00 30 1014.4
20200228211316 29 22 4.8 8.0 0.00 0.00 0.00 29 1014.4
20200228210316 29 270 9.7 12.9 0.00 0.00 0.00 28 1014.6
20200228205315 30 90 3.2 4.8 0.00 0.00 0.00 29 1014.7
20200228204317 29 0.0 1.6 0.00 0.00 0.00 29 1015.0
20200228203316 29 247 6.4 12.9 0.00 0.00 0.00 27 1015.0
20200228202320 29 157 6.4 11.3 0.00 0.00 0.00 28 1015.3
20200228200315 28 157 6.4 11.3 0.00 0.00 0.00 29 1015.7
20200228195316 28 45 6.4 9.7 0.00 0.00 0.00 31 1015.7
20200228194317 28 45 8.0 9.7 0.00 0.00 0.00 30 1015.8
20200228193315 28 67 6.4 9.7 0.00 0.00 0.00 30 1016.1
20200228192316 28 247 4.8 8.0 0.00 0.00 0.00 29 1016.1
20200228191315 27 180 8.0 9.7 0.00 0.00 0.00 31 1016.5
20200228190315 28 180 8.0 11.3 0.00 0.00 0.00 30 1016.7
20200228185315 27 45 1.6 6.4 0.00 0.00 0.00 32 1016.9
20200228184317 27 45 6.4 8.0 0.00 0.00 0.00 32 1017.2
20200228183315 27 135 8.0 12.9 0.00 0.00 0.00 34 1017.4
20200228182315 27 0 3.2 4.8 0.00 0.00 0.00 34 1017.5
20200228181315 26 67 3.2 9.7 0.00 0.00 0.00 36 1017.7
20200228180316 27 247 3.2 3.2 0.00 0.00 0.00 35 1018.0
20200228175317 26 337 4.8 8.0 0.00 0.00 0.00 38 1018.2
20200228174317 25 180 3.2 4.8 0.00 0.00 0.00 39 1018.2
20200228173317 25 45 3.2 6.4 0.00 0.00 0.00 40 1018.3
20200228172317 25 225 1.6 3.2 0.00 0.00 0.00 41 1018.4
20200228171318 25 270 1.6 3.2 0.00 0.00 0.00 42 1018.6
20200228170317 23 157 3.2 6.4 0.00 0.00 0.00 45 1018.7
20200228165317 23 45 4.8 6.4 0.00 0.00 0.00 49 1018.8
20200228164317 23 202 3.2 3.2 0.00 0.00 0.00 47 1019.0
20200228163317 22 112 1.6 1.6 0.00 0.00 0.00 49 1019.2
20200228162317 21 112 3.2 4.8 0.00 0.00 0.00 55 1019.2
20200228161317 21 247 4.8 6.4 0.00 0.00 0.00 56 1019.2
20200228160317 20 22 3.2 4.8 0.00 0.00 0.00 58 1019.1
20200228155322 20 45 1.6 4.8 0.00 0.00 0.00 57 1018.9
20200228154317 20 22 3.2 4.8 0.00 0.00 0.00 54 1018.8
20200228153317 20 135 3.2 3.2 0.00 0.00 0.00 56 1018.8
20200228152317 18 135 1.6 3.2 0.00 0.00 0.00 57 1018.6
20200228151317 17 157 1.6 3.2 0.00 0.00 0.00 61 1018.5
20200228150317 17 180 1.6 1.6 0.00 0.00 0.00 63 1018.4
20200228145317 17 315 3.2 4.8 0.00 0.00 0.00 62 1018.2
20200228144317 15 45 1.6 3.2 0.00 0.00 0.00 62 1018.1
20200228143317 14 0.0 1.6 0.00 0.00 0.00 70 1018.0
20200228142317 12 0.0 1.6 0.00 0.00 0.00 76 1017.8
20200228141317 11 0.0 0.0 0.00 0.00 0.00 79 1017.8
20200228140317 11 0.0 0.0 0.00 0.00 0.00 79 1017.7
20200228135317 11 180 1.6 3.2 0.00 0.00 0.00 79 1017.6
20200228134317 11 180 3.2 4.8 0.00 0.00 0.00 78 1017.4
20200228133317 11 180 1.6 3.2 0.00 0.00 0.00 75 1017.3
20200228132316 12 180 1.6 3.2 0.00 0.00 0.00 71 1017.2
20200228131317 14 337 1.6 3.2 0.00 0.00 0.00 64 1017.2
20200228130317 15 67 3.2 3.2 0.00 0.00 0.00 57 1017.2
20200228125317 15 337 11.3 14.5 0.00 0.00 0.00 59 1017.1
20200228124316 15 0 6.4 12.9 0.00 0.00 0.00 58 1017.0
20200228123316 15 315 11.3 16.1 0.00 0.00 0.00 55 1016.9
20200228122318 15 337 12.9 16.1 0.00 0.00 0.00 60 1016.9
20200228121316 14 337 9.7 14.5 0.00 0.00 0.00 62 1016.8
20200228120316 12 337 9.7 14.5 0.00 0.00 0.00 70 1016.6
20200228115317 11 135 3.2 4.8 0.00 0.00 0.00 81 1016.6
20200228114316 11 0.0 1.6 0.00 0.00 0.00 83 1016.6
20200228113317 11 0.0 1.6 0.00 0.00 0.00 84 1016.7
20200228112317 11 337 3.2 4.8 0.00 0.00 0.00 84 1016.5
20200228111316 11 0.0 1.6 0.00 0.00 0.00 84 1016.4
20200228110317 11 247 1.6 3.2 0.00 0.00 0.00 84 1016.5
20200228105316 11 67 1.6 4.8 0.00 0.00 0.00 84 1016.4
20200228104316 11 337 1.6 3.2 0.00 0.00 0.00 84 1016.5
20200228103316 12 337 1.6 3.2 0.00 0.00 0.00 82 1016.4
20200228102317 12 292 1.6 3.2 0.00 0.00 0.00 83 1016.5
20200228101316 12 0.0 0.0 0.00 0.00 0.00 82 1016.6
20200228100317 13 0.0 1.6 0.00 0.00 0.00 81 1016.7
20200228095316 12 0.0 1.6 0.00 0.00 0.00 84 1016.7
20200228094316 12 202 1.6 3.2 0.00 0.00 0.00 84 1016.7
20200228093316 12 0.0 0.0 0.00 0.00 0.00 85 1016.7
20200228092316 12 202 1.6 1.6 0.00 0.00 0.00 84 1016.7
20200228091316 12 0.0 0.0 0.00 0.00 0.00 84 1016.7
20200228090317 12 0.0 1.6 0.00 0.00 0.00 84 1016.7
20200228085316 13 0.0 0.0 0.00 0.00 0.00 83 1016.6
20200228084316 14 90 1.6 3.2 0.00 0.00 0.00 80 1016.7
20200228083316 15 0 6.4 9.7 0.00 0.00 0.00 77 1016.8
20200228082316 13 247 1.6 1.6 0.00 0.00 0.00 84 1016.9
20200228081316 13 0 6.4 8.0 0.00 0.00 0.00 84 1016.9
20200228080316 13 315 1.6 3.2 0.00 0.00 0.00 84 1016.9
20200228075316 13 0.0 0.0 0.00 0.00 0.00 84 1017.1
20200228074316 13 270 6.4 9.7 0.00 0.00 0.00 84 1017.1
20200228073316 14 67 1.6 3.2 0.00 0.00 0.00 81 1017.4
20200228072316 15 67 1.6 1.6 0.00 0.00 0.00 79 1017.4